Norfolk Downs, Massachusetts
Current Conditions -  °F | °C
As of 5:54 AM on Friday 24 Oct 2014 (Local Time) from KBOS Reporting Station
Overcast Overcast  
Wind Chill:   Ceiling: 1200
Heat Index:   Visibility: 10mi
Dew Point:   Wind: 14mph
Humidity: 100%   Direction: 330°NNW
Pressure: 29.67"   Gusts: NA
Location:  42.2866°N, 71.0248°W
Report Text: KBOS 240954Z 33012KT 10SM BKN012 OVC020 09/09 A2967 RMK AO2 SLP047 T00890089
Loading
Personal Weather Stations






























Interactive Weather Map
Tropical Storm Tracking
New forecast layout! Learn more

10-Day Weather Forecast

Advertisements
Track Severe Weather on mobile